Time;durP1;ratioP1;P1;durP2;ratioP2;P2;SDS_P1;SDS_P2;PMS_P1;PMS_P2;Temp;Humidity;BMP_temperature;BMP_pressure;BME280_temperature;BME280_humidity;BME280_pressure;Samples;Min_cycle;Max_cycle;Signal;HPM_P1;HPM_P2
2023/06/25 00:00:19;;;;;;;11.13;7.72;;;;;;;22.07;69.65;99191.44;4983381;28;20041;-90
2023/06/25 00:02:45;;;;;;;15.20;7.60;;;;;;;22.07;69.80;99193.38;4983201;28;20025;-89
2023/06/25 00:05:10;;;;;;;13.95;7.90;;;;;;;22.12;69.81;99190.38;4983292;28;20052;-89
2023/06/25 00:07:36;;;;;;;14.20;7.82;;;;;;;21.99;70.19;99197.88;4982290;28;20021;-89
2023/06/25 00:10:02;;;;;;;12.10;7.28;;;;;;;21.98;70.08;99205.31;4982266;28;20088;-89
2023/06/25 00:12:27;;;;;;;13.98;7.75;;;;;;;21.95;70.03;99197.75;4982372;28;20021;-89
2023/06/25 00:14:52;;;;;;;13.52;7.50;;;;;;;22.01;70.04;99206.53;4982512;28;20033;-89
2023/06/25 00:17:18;;;;;;;14.20;7.20;;;;;;;21.94;69.97;99200.88;4982746;28;20475;-89
2023/06/25 00:19:44;;;;;;;10.25;7.20;;;;;;;21.87;70.59;99195.19;4982400;28;20034;-89
2023/06/25 00:22:11;;;;;;;12.40;7.53;;;;;;;21.86;70.33;99194.38;4983101;28;20037;-89
2023/06/25 00:24:37;;;;;;;11.73;6.78;;;;;;;21.87;70.50;99203.41;4983476;28;20116;-88
2023/06/25 00:27:03;;;;;;;12.63;7.35;;;;;;;21.90;69.94;99206.25;4982831;28;20424;-89
2023/06/25 00:29:28;;;;;;;12.45;7.25;;;;;;;21.82;70.24;99211.88;4982578;28;20026;-89
2023/06/25 00:31:54;;;;;;;11.45;6.78;;;;;;;21.77;70.38;99212.94;4967343;28;20089;-89
2023/06/25 00:34:19;;;;;;;19.65;7.75;;;;;;;21.72;70.28;99205.72;4971574;28;20550;-89
2023/06/25 00:36:45;;;;;;;16.98;7.68;;;;;;;21.71;70.67;99209.63;4982495;28;20037;-89
2023/06/25 00:39:11;;;;;;;18.25;7.25;;;;;;;21.68;70.23;99209.50;4982378;28;20032;-89
2023/06/25 00:41:39;;;;;;;12.73;7.25;;;;;;;21.57;71.16;99212.72;4966613;28;20022;-90
2023/06/25 00:44:06;;;;;;;15.77;7.03;;;;;;;21.53;70.86;99213.78;4970065;28;20477;-88
2023/06/25 00:46:31;;;;;;;13.55;6.70;;;;;;;21.55;71.22;99216.97;4967030;28;20510;-89
2023/06/25 00:48:56;;;;;;;7.78;6.82;;;;;;;21.49;71.40;99207.41;4982005;28;20060;-90
2023/06/25 00:51:27;;;;;;;9.77;7.18;;;;;;;21.54;71.36;99220.84;4982507;28;20030;-89
2023/06/25 00:53:52;;;;;;;10.90;7.03;;;;;;;21.47;71.40;99210.47;4982537;28;20026;-90
2023/06/25 00:56:28;;;;;;;13.45;7.30;;;;;;;21.50;70.91;99212.53;4981667;28;20022;-90
2023/06/25 00:59:01;;;;;;;18.00;7.30;;;;;;;21.46;71.79;99217.09;4983264;28;20080;-90
2023/06/25 01:01:39;;;;;;;9.88;6.85;;;;;;;21.37;71.87;99222.69;4982505;28;20697;-90
2023/06/25 01:04:08;;;;;;;11.57;6.75;;;;;;;21.35;71.33;99215.94;4995220;28;20030;-90
2023/06/25 01:06:36;;;;;;;10.85;6.57;;;;;;;21.29;71.69;99212.66;4979357;28;20038;-90
2023/06/25 01:09:02;;;;;;;13.02;7.20;;;;;;;21.30;71.75;99203.28;4963321;28;20026;-90
2023/06/25 01:11:28;;;;;;;11.15;7.47;;;;;;;21.25;71.75;99213.66;4962744;28;20053;-90
2023/06/25 01:13:53;;;;;;;13.63;7.05;;;;;;;21.28;71.83;99222.00;4962122;28;20094;-90
2023/06/25 01:16:19;;;;;;;20.75;13.40;;;;;;;21.30;71.31;99227.94;4978405;28;20113;-90
2023/06/25 01:18:44;;;;;;;18.80;7.70;;;;;;;21.19;71.99;99224.88;4962509;28;20019;-87
2023/06/25 01:21:10;;;;;;;12.07;7.30;;;;;;;21.26;71.71;99226.22;4982227;28;20496;-90
2023/06/25 01:23:36;;;;;;;10.98;7.20;;;;;;;21.27;71.67;99236.03;4966873;28;20030;-90
2023/06/25 01:26:01;;;;;;;12.10;8.00;;;;;;;21.21;71.48;99232.75;4966918;28;20026;-90
2023/06/25 01:28:26;;;;;;;15.15;7.55;;;;;;;21.18;71.67;99250.63;4966450;28;20027;-89
2023/06/25 01:30:53;;;;;;;11.57;7.05;;;;;;;21.28;71.56;99252.13;4966480;28;20030;-88
2023/06/25 01:33:22;;;;;;;14.15;7.25;;;;;;;21.24;71.97;99253.94;4966375;28;20029;-89
2023/06/25 01:35:47;;;;;;;12.98;7.38;;;;;;;21.15;71.81;99248.59;4965680;28;20492;-90
2023/06/25 01:38:13;;;;;;;10.65;6.95;;;;;;;21.22;72.03;99250.75;4965801;28;20080;-89
2023/06/25 01:40:39;;;;;;;14.00;7.38;;;;;;;21.29;71.60;99266.59;4981901;28;20492;-90
2023/06/25 01:43:04;;;;;;;11.05;7.50;;;;;;;21.19;71.72;99265.16;4965869;28;20068;-89
2023/06/25 01:45:29;;;;;;;12.00;6.55;;;;;;;21.08;72.00;99244.81;4959054;28;20030;-90
2023/06/25 01:47:55;;;;;;;21.05;7.30;;;;;;;21.16;72.38;99272.09;4963745;28;20485;-89
2023/06/25 01:50:20;;;;;;;10.90;6.60;;;;;;;21.16;71.53;99269.34;4946690;28;20430;-88
2023/06/25 01:52:46;;;;;;;9.38;6.20;;;;;;;21.10;71.68;99272.66;4946868;28;20018;-90
2023/06/25 01:55:11;;;;;;;13.60;7.10;;;;;;;21.13;72.15;99283.72;4959244;28;20035;-90
2023/06/25 01:57:37;;;;;;;10.05;5.40;;;;;;;21.23;70.71;99290.72;4978693;28;20034;-90
2023/06/25 02:00:04;;;;;;;10.05;5.55;;;;;;;21.24;70.36;99283.28;4949782;28;20034;-91
2023/06/25 02:02:29;;;;;;;11.52;5.03;;;;;;;21.23;70.37;99290.72;4966426;28;20026;-90
2023/06/25 02:04:55;;;;;;;9.82;5.20;;;;;;;21.30;69.60;99284.66;4965406;28;20038;-90
2023/06/25 02:07:20;;;;;;;13.85;5.07;;;;;;;21.36;69.07;99286.81;4982223;28;20030;-90
2023/06/25 02:09:46;;;;;;;12.75;4.90;;;;;;;21.38;68.85;99300.97;4965387;28;20519;-90
2023/06/25 02:12:11;;;;;;;12.32;4.95;;;;;;;21.35;68.95;99301.66;4965193;28;20030;-90
2023/06/25 02:14:37;;;;;;;8.77;4.95;;;;;;;21.35;68.72;99306.31;4966032;28;20057;-89
2023/06/25 02:17:02;;;;;;;13.23;5.03;;;;;;;21.39;68.76;99310.78;4981267;28;20033;-90
2023/06/25 02:19:28;;;;;;;8.57;4.97;;;;;;;21.43;68.68;99319.13;4965265;28;20056;-90
2023/06/25 02:21:53;;;;;;;11.15;5.53;;;;;;;21.35;69.54;99306.31;4980900;28;20026;-88
2023/06/25 02:24:19;;;;;;;8.55;4.82;;;;;;;21.49;68.97;99320.50;4965873;28;20100;-90
2023/06/25 02:26:44;;;;;;;11.68;5.50;;;;;;;21.29;69.21;99313.16;4966087;28;20026;-90
2023/06/25 02:29:10;;;;;;;8.00;4.97;;;;;;;21.28;69.09;99314.31;4964816;28;20027;-89
2023/06/25 02:31:35;;;;;;;6.32;3.90;;;;;;;21.42;68.70;99330.44;4964586;28;20034;-90
2023/06/25 02:34:01;;;;;;;8.25;3.75;;;;;;;21.40;68.83;99338.97;4965877;28;20034;-89
2023/06/25 02:36:26;;;;;;;7.68;4.00;;;;;;;21.31;69.29;99336.34;4965667;28;20027;-89
2023/06/25 02:38:51;;;;;;;6.55;4.00;;;;;;;21.27;70.14;99348.31;4965306;28;20026;-89
2023/06/25 02:41:17;;;;;;;7.93;4.15;;;;;;;21.30;69.69;99344.91;4965589;28;20062;-89
2023/06/25 02:43:42;;;;;;;6.32;4.07;;;;;;;21.32;69.69;99359.84;4965964;28;20022;-89
2023/06/25 02:46:08;;;;;;;7.97;4.18;;;;;;;21.34;69.79;99346.63;4964939;28;20002;-89
2023/06/25 02:48:36;;;;;;;8.88;4.97;;;;;;;21.29;70.09;99346.03;4964982;28;20027;-90
2023/06/25 02:51:01;;;;;;;8.77;4.45;;;;;;;21.33;70.27;99347.78;4965154;28;20117;-90
2023/06/25 02:53:26;;;;;;;8.88;4.20;;;;;;;21.43;69.41;99343.78;4964612;28;20026;-90
2023/06/25 02:55:52;;;;;;;8.73;4.53;;;;;;;21.52;69.58;99358.19;4965496;28;20034;-90
2023/06/25 02:58:17;;;;;;;8.20;3.83;;;;;;;21.40;70.09;99347.19;4964673;28;20023;-88
2023/06/25 03:00:43;;;;;;;10.85;4.60;;;;;;;21.42;70.23;99349.59;4965154;28;20033;-89
2023/06/25 03:03:08;;;;;;;7.40;4.13;;;;;;;21.47;70.20;99358.41;4964686;28;20053;-89
2023/06/25 03:05:34;;;;;;;7.75;4.25;;;;;;;21.53;70.08;99361.72;4964754;28;20037;-87
2023/06/25 03:07:59;;;;;;;9.82;4.60;;;;;;;21.52;70.18;99354.63;4964308;28;20022;-89
2023/06/25 03:10:29;;;;;;;8.50;3.95;;;;;;;21.48;70.78;99357.28;4964685;28;20023;-89
2023/06/25 03:12:55;;;;;;;10.57;4.38;;;;;;;21.55;70.68;99356.69;4981453;28;20030;-90
2023/06/25 03:15:21;;;;;;;8.82;3.95;;;;;;;21.61;70.64;99358.06;4948617;28;20408;-89
2023/06/25 03:17:46;;;;;;;10.02;4.63;;;;;;;21.67;70.14;99359.44;4964772;28;20029;-90
2023/06/25 03:20:12;;;;;;;9.10;4.18;;;;;;;21.59;70.09;99361.16;4965818;28;20085;-89
2023/06/25 03:22:38;;;;;;;8.90;5.32;;;;;;;21.54;70.51;99355.91;4964900;28;20117;-89
2023/06/25 03:25:04;;;;;;;9.02;4.63;;;;;;;21.55;70.58;99357.50;4964416;28;20022;-88
2023/06/25 03:27:35;;;;;;;9.77;5.10;;;;;;;21.63;70.12;99358.53;4964746;28;20097;-89
2023/06/25 03:30:01;;;;;;;;;;;;;;;21.80;70.27;99365.72;4964599;28;20057;-89
2023/06/25 03:32:26;;;;;;;7.00;4.43;;;;;;;21.78;69.84;99359.78;4997195;28;19916;-89
2023/06/25 03:34:52;;;;;;;8.73;4.45;;;;;;;21.73;69.83;99360.03;4963887;28;20033;-90
2023/06/25 03:37:17;;;;;;;10.23;5.53;;;;;;;21.65;70.06;99363.69;4963880;28;20030;-90
2023/06/25 03:39:43;;;;;;;11.77;4.68;;;;;;;21.71;69.91;99362.31;4964260;28;20031;-90
2023/06/25 03:42:08;;;;;;;9.77;5.28;;;;;;;21.72;69.83;99366.63;4963604;28;20034;-90
2023/06/25 03:44:34;;;;;;;7.03;4.47;;;;;;;21.74;70.18;99359.66;4964124;28;20009;-89
2023/06/25 03:47:00;;;;;;;7.22;4.28;;;;;;;21.92;69.00;99365.72;4963521;28;20023;-89
2023/06/25 03:49:26;;;;;;;7.70;4.43;;;;;;;21.98;69.06;99355.31;4963680;28;20086;-89
2023/06/25 03:51:51;;;;;;;9.38;4.82;;;;;;;22.06;68.52;99361.78;4963740;28;20018;-90
2023/06/25 03:54:16;;;;;;;9.82;4.82;;;;;;;22.13;68.32;99365.56;4964180;28;20026;-90
2023/06/25 03:56:42;;;;;;;7.85;4.18;;;;;;;22.16;68.46;99367.63;4963544;28;20027;-89
2023/06/25 03:59:07;;;;;;;6.55;4.80;;;;;;;22.15;68.55;99373.44;4964049;28;20110;-90
2023/06/25 04:01:33;;;;;;;11.30;4.95;;;;;;;22.10;68.73;99360.78;4948119;28;20011;-89
2023/06/25 04:03:59;;;;;;;10.70;5.10;;;;;;;22.19;68.08;99374.34;4971352;28;20507;-89
2023/06/25 04:06:24;;;;;;;13.23;4.82;;;;;;;22.23;68.11;99364.31;4962980;28;20022;-90
2023/06/25 04:08:49;;;;;;;11.55;4.75;;;;;;;22.12;69.04;99363.97;4963879;28;20018;-89
2023/06/25 04:11:15;;;;;;;13.18;5.80;;;;;;;21.98;69.50;99360.78;4962628;28;20097;-90
2023/06/25 04:13:40;;;;;;;11.65;6.00;;;;;;;22.02;69.25;99360.88;4963379;28;20555;-90
2023/06/25 04:16:07;;;;;;;9.52;5.30;;;;;;;22.03;69.37;99368.78;4963878;28;20029;-89
2023/06/25 04:18:32;;;;;;;12.10;5.30;;;;;;;22.02;69.94;99369.94;4963345;28;20032;-89
2023/06/25 04:20:58;;;;;;;7.97;5.30;;;;;;;22.18;69.30;99375.47;4963177;28;20481;-90
2023/06/25 04:23:23;;;;;;;9.85;5.43;;;;;;;22.14;68.86;99363.59;4964041;28;20045;-90
2023/06/25 04:25:49;;;;;;;10.98;5.43;;;;;;;22.14;69.14;99360.84;4964372;28;20026;-89
2023/06/25 04:28:15;;;;;;;11.85;6.22;;;;;;;22.14;69.47;99369.91;4962469;28;20451;-89
2023/06/25 04:30:40;;;;;;;8.73;5.40;;;;;;;22.03;70.22;99367.97;4981286;28;20468;-89
2023/06/25 04:33:06;;;;;;;11.10;5.65;;;;;;;22.00;70.51;99369.47;4966799;28;20053;-90
2023/06/25 04:35:32;;;;;;;8.25;5.05;;;;;;;22.00;70.80;99372.22;4966233;28;20487;-89
2023/06/25 04:37:58;;;;;;;12.00;5.70;;;;;;;22.01;70.56;99365.56;4947917;28;20030;-90
2023/06/25 04:40:23;;;;;;;12.90;5.60;;;;;;;22.02;70.60;99361.69;4962757;28;20038;-89
2023/06/25 04:42:49;;;;;;;10.02;5.45;;;;;;;22.25;70.29;99373.00;4948057;28;20035;-89
2023/06/25 04:45:14;;;;;;;8.75;5.43;;;;;;;22.48;68.71;99370.53;4948909;28;20085;-89
2023/06/25 04:47:40;;;;;;;10.23;5.38;;;;;;;22.63;68.29;99368.19;4950668;28;20058;-89
2023/06/25 04:50:06;;;;;;;11.68;5.78;;;;;;;22.81;68.01;99374.97;4965875;28;20033;-89
2023/06/25 04:52:31;;;;;;;7.90;5.28;;;;;;;22.75;68.37;99363.44;4948482;28;20113;-89
2023/06/25 04:54:57;;;;;;;10.43;6.30;;;;;;;22.76;68.40;99365.00;4964190;28;20405;-88
2023/06/25 04:57:22;;;;;;;8.48;5.55;;;;;;;22.82;67.40;99371.06;4963943;28;20018;-88
2023/06/25 04:59:48;;;;;;;9.38;5.47;;;;;;;22.95;67.49;99366.31;4965835;28;20042;-89
2023/06/25 05:02:14;;;;;;;13.07;5.53;;;;;;;22.91;67.63;99373.66;4965431;28;20098;-89
2023/06/25 05:04:39;;;;;;;8.15;5.72;;;;;;;22.96;67.15;99365.16;4978479;28;20395;-88
2023/06/25 05:07:05;;;;;;;8.65;5.70;;;;;;;22.89;67.58;99360.28;4974680;28;20038;-89
2023/06/25 05:09:30;;;;;;;15.18;6.13;;;;;;;23.02;66.67;99355.56;4964232;28;20054;-89
2023/06/25 05:11:56;;;;;;;10.07;6.05;;;;;;;23.15;67.26;99361.75;4969313;28;20022;-89
2023/06/25 05:14:21;;;;;;;11.07;6.00;;;;;;;23.20;66.58;99362.31;4984022;28;20034;-89
2023/06/25 05:16:47;;;;;;;14.65;5.63;;;;;;;23.20;67.04;99356.00;4980040;28;20041;-89
2023/06/25 05:19:12;;;;;;;10.75;5.88;;;;;;;23.36;66.40;99350.50;4982699;28;20026;-89
2023/06/25 05:21:38;;;;;;;11.93;5.93;;;;;;;23.38;66.20;99356.44;4983347;28;20033;-89
2023/06/25 05:24:04;;;;;;;11.60;5.88;;;;;;;23.63;65.50;99357.06;4985654;28;20029;-88
2023/06/25 05:26:30;;;;;;;11.60;5.90;;;;;;;23.51;65.96;99343.41;4981858;28;20087;-89
2023/06/25 05:28:56;;;;;;;9.70;5.80;;;;;;;23.57;64.92;99342.81;4999663;28;20026;-88
2023/06/25 05:31:21;;;;;;;9.50;5.45;;;;;;;23.92;64.31;99342.03;4983292;28;20045;-88
2023/06/25 05:33:47;;;;;;;11.27;5.75;;;;;;;23.96;63.37;99345.66;4984735;28;20046;-89
2023/06/25 05:36:13;;;;;;;13.32;5.90;;;;;;;24.04;63.14;99340.34;4983302;28;20034;-89
2023/06/25 05:38:38;;;;;;;12.13;5.88;;;;;;;23.96;63.90;99334.66;4983570;28;20090;-89
2023/06/25 05:41:04;;;;;;;9.48;5.05;;;;;;;24.22;62.78;99336.00;4981815;28;20052;-89
2023/06/25 05:43:29;;;;;;;10.48;5.70;;;;;;;24.21;63.10;99328.91;4981357;28;20030;-88
2023/06/25 05:45:54;;;;;;;9.38;4.90;;;;;;;24.28;62.58;99328.25;4981134;28;20480;-89
2023/06/25 05:48:20;;;;;;;7.78;5.03;;;;;;;24.45;61.28;99332.53;4982303;28;20022;-88
2023/06/25 05:50:45;;;;;;;9.68;4.88;;;;;;;24.43;60.96;99313.63;4982694;28;20515;-89
2023/06/25 05:53:11;;;;;;;7.18;4.65;;;;;;;24.52;61.34;99324.44;4982430;28;20026;-89
2023/06/25 05:55:36;;;;;;;10.85;5.20;;;;;;;24.57;61.00;99319.44;4981662;28;20026;-89
2023/06/25 05:58:02;;;;;;;9.63;4.65;;;;;;;24.38;60.39;99316.66;4980210;28;20045;-90
2023/06/25 06:00:27;;;;;;;9.20;4.47;;;;;;;24.49;60.29;99311.41;4982114;28;20042;-89
2023/06/25 06:02:53;;;;;;;10.02;4.55;;;;;;;24.50;60.29;99321.25;4982417;28;20093;-88
2023/06/25 06:05:18;;;;;;;10.48;4.40;;;;;;;24.65;60.21;99331.38;4984723;28;20037;-89
2023/06/25 06:07:44;;;;;;;8.35;4.20;;;;;;;24.60;60.20;99313.19;4986057;28;20032;-89
2023/06/25 06:10:13;;;;;;;10.00;4.50;;;;;;;24.55;59.75;99318.19;4986613;28;20034;-90
2023/06/25 06:12:39;;;;;;;11.45;4.43;;;;;;;24.53;60.59;99302.06;4987660;28;20038;-90
2023/06/25 06:15:05;;;;;;;8.88;4.63;;;;;;;24.75;59.65;99316.22;4985935;28;20472;-89
2023/06/25 06:17:30;;;;;;;6.85;4.50;;;;;;;24.59;60.20;99306.13;4986006;28;20026;-91
2023/06/25 06:19:56;;;;;;;8.50;4.38;;;;;;;24.58;60.56;99315.53;4986297;28;20045;-91
2023/06/25 06:22:21;;;;;;;9.05;4.38;;;;;;;24.70;60.57;99314.56;4985139;28;20488;-89
2023/06/25 06:24:46;;;;;;;9.77;3.92;;;;;;;24.80;59.83;99302.97;4985698;28;20103;-89
2023/06/25 06:27:12;;;;;;;14.35;11.43;;;;;;;24.89;59.26;99301.94;4986440;28;20036;-89
2023/06/25 06:29:37;;;;;;;13.35;5.82;;;;;;;24.93;59.26;99306.34;5003301;28;20045;-89
2023/06/25 06:32:04;;;;;;;10.55;5.05;;;;;;;25.00;59.21;99292.66;4986551;28;20038;-90
2023/06/25 06:34:29;;;;;;;9.10;5.13;;;;;;;25.23;58.75;99297.41;4984985;28;20385;-90
2023/06/25 06:36:54;;;;;;;5.85;3.67;;;;;;;25.34;58.26;99289.34;4985264;28;20084;-90
2023/06/25 06:39:20;;;;;;;6.88;4.45;;;;;;;25.27;57.69;99291.97;4968754;28;20018;-90
2023/06/25 06:41:45;;;;;;;9.73;4.32;;;;;;;25.26;58.17;99284.88;4965001;28;20412;-89
2023/06/25 06:44:15;;;;;;;6.50;4.13;;;;;;;25.33;58.05;99285.75;4964959;28;20026;-89
2023/06/25 06:46:41;;;;;;;8.35;4.78;;;;;;;25.50;57.59;99281.69;4965457;28;20522;-88
2023/06/25 06:49:07;;;;;;;9.43;4.47;;;;;;;25.69;57.21;99285.50;4964631;28;20034;-90
2023/06/25 06:51:36;;;;;;;9.75;4.55;;;;;;;25.68;57.35;99292.19;4966776;28;20026;-89
2023/06/25 06:54:02;;;;;;;8.40;4.28;;;;;;;25.83;56.67;99276.63;4996993;28;20038;-88
2023/06/25 06:56:33;;;;;;;8.90;4.00;;;;;;;25.85;56.60;99279.81;4979511;28;20420;-88
2023/06/25 06:59:07;;;;;;;8.70;4.53;;;;;;;25.86;56.71;99284.16;5002237;28;20026;-89
2023/06/25 07:01:33;;;;;;;10.05;5.05;;;;;;;26.01;56.23;99277.69;5036480;28;20049;-90
2023/06/25 07:03:59;;;;;;;8.63;4.20;;;;;;;26.19;56.02;99264.91;4985361;28;20480;-90
2023/06/25 07:06:25;;;;;;;9.85;4.50;;;;;;;26.35;55.41;99266.66;4995060;28;20028;-89
2023/06/25 07:08:50;;;;;;;11.75;4.63;;;;;;;26.41;55.45;99265.13;4973847;28;20084;-90
2023/06/25 07:11:18;;;;;;;8.38;4.53;;;;;;;26.41;55.54;99268.69;4968734;28;20033;-90
2023/06/25 07:13:44;;;;;;;11.93;4.47;;;;;;;26.35;55.25;99258.38;4953440;28;20030;-90
2023/06/25 07:16:10;;;;;;;25.15;16.98;;;;;;;26.33;55.15;99260.72;4964254;28;20030;-89
2023/06/25 07:18:35;;;;;;;11.43;4.40;;;;;;;26.32;54.75;99262.69;4964334;28;20027;-90
2023/06/25 07:21:03;;;;;;;9.05;4.05;;;;;;;26.34;53.92;99278.88;4965071;28;20030;-91
2023/06/25 07:23:28;;;;;;;7.43;4.18;;;;;;;26.18;53.04;99265.28;4965218;28;20407;-91
2023/06/25 07:25:54;;;;;;;6.07;3.65;;;;;;;26.22;53.47;99257.84;4964130;28;20030;-90
2023/06/25 07:28:19;;;;;;;8.00;3.85;;;;;;;26.29;54.27;99257.91;4964058;28;20057;-90
2023/06/25 07:30:45;;;;;;;8.65;4.07;;;;;;;26.38;54.49;99258.41;4964218;28;20073;-90
2023/06/25 07:33:10;;;;;;;5.82;3.47;;;;;;;26.37;53.04;99259.56;4964108;28;20052;-90
2023/06/25 07:35:36;;;;;;;6.72;4.10;;;;;;;26.24;53.61;99260.22;4964278;28;20104;-91
2023/06/25 07:38:04;;;;;;;7.22;4.07;;;;;;;26.27;53.37;99251.19;4963966;28;20030;-91
2023/06/25 07:40:29;;;;;;;11.38;4.40;;;;;;;26.34;53.95;99249.28;4963829;28;20030;-90
2023/06/25 07:42:55;;;;;;;7.50;3.42;;;;;;;26.49;53.68;99252.22;4963604;28;20081;-91
2023/06/25 07:45:21;;;;;;;7.50;3.80;;;;;;;26.56;52.98;99252.28;4964062;28;20380;-91
2023/06/25 07:47:46;;;;;;;8.65;3.92;;;;;;;26.53;53.12;99248.31;4963572;28;20023;-90
2023/06/25 07:50:12;;;;;;;6.70;4.45;;;;;;;26.52;53.00;99241.22;4963887;28;20033;-91
2023/06/25 07:52:37;;;;;;;9.95;4.03;;;;;;;26.65;52.58;99239.00;4963624;28;20045;-91
2023/06/25 07:55:03;;;;;;;7.38;3.95;;;;;;;26.65;52.36;99246.50;4980776;28;20029;-90
2023/06/25 07:57:28;;;;;;;6.50;3.42;;;;;;;26.70;52.49;99240.59;4974750;28;20065;-90
2023/06/25 07:59:54;;;;;;;8.48;3.78;;;;;;;26.72;51.84;99228.00;4983718;28;20029;-89
2023/06/25 08:02:20;;;;;;;8.02;3.85;;;;;;;26.85;52.27;99238.75;4967019;28;20033;-90
2023/06/25 08:04:45;;;;;;;7.80;3.45;;;;;;;26.74;51.97;99241.44;4962946;28;20113;-90
2023/06/25 08:07:11;;;;;;;9.07;3.92;;;;;;;26.50;52.88;99240.78;4979719;28;20030;-90
2023/06/25 08:09:36;;;;;;;11.63;4.10;;;;;;;26.47;53.82;99243.50;4979887;28;20026;-91
2023/06/25 08:12:02;;;;;;;6.38;3.80;;;;;;;26.48;54.38;99243.13;4963929;28;20030;-90
2023/06/25 08:14:27;;;;;;;8.00;4.55;;;;;;;26.37;54.88;99229.19;4964092;28;20092;-89
2023/06/25 08:16:53;;;;;;;7.78;4.50;;;;;;;26.65;54.02;99232.69;4979004;28;20393;-90
2023/06/25 08:19:18;;;;;;;7.50;3.60;;;;;;;26.60;52.72;99220.00;4983911;28;20022;-90
2023/06/25 08:21:44;;;;;;;7.55;4.13;;;;;;;26.60;53.01;99231.84;4981975;28;20038;-92
2023/06/25 08:24:09;;;;;;;6.80;4.15;;;;;;;26.59;52.84;99226.69;4980848;28;20022;-91
2023/06/25 08:26:38;;;;;;;8.15;3.90;;;;;;;26.52;52.72;99227.41;4980417;28;20459;-90
2023/06/25 08:29:04;;;;;;;7.72;4.35;;;;;;;26.67;53.11;99213.75;4980157;28;20473;-91
2023/06/25 08:31:29;;;;;;;9.27;3.80;;;;;;;26.84;53.25;99195.75;4964566;28;20088;-91
2023/06/25 08:33:55;;;;;;;7.35;4.10;;;;;;;27.16;52.45;99204.25;4979549;28;20408;-92
2023/06/25 08:36:20;;;;;;;7.38;4.03;;;;;;;27.28;51.67;99197.66;4980672;28;20034;-91
2023/06/25 08:38:46;;;;;;;10.68;3.92;;;;;;;27.29;51.87;99211.09;4980116;28;20062;-90
2023/06/25 08:41:11;;;;;;;12.18;4.20;;;;;;;27.18;51.21;99210.97;4980166;28;20015;-91
2023/06/25 08:43:37;;;;;;;7.70;3.88;;;;;;;27.16;51.31;99204.25;4962647;28;20049;-91
2023/06/25 08:46:02;;;;;;;8.38;3.90;;;;;;;27.18;51.89;99204.66;4981131;28;20499;-90
2023/06/25 08:48:29;;;;;;;8.90;4.28;;;;;;;27.16;51.92;99182.94;4981482;28;20030;-88
2023/06/25 08:51:02;;;;;;;10.80;4.07;;;;;;;27.30;52.43;99200.84;4965268;28;20050;-91
2023/06/25 08:53:28;;;;;;;5.80;3.75;;;;;;;27.37;51.38;99203.63;4964420;28;20038;-91
2023/06/25 08:55:55;;;;;;;6.03;3.78;;;;;;;27.26;51.06;99195.28;4979653;28;20059;-90
2023/06/25 08:58:21;;;;;;;9.90;4.05;;;;;;;27.45;51.49;99196.19;4965198;28;20026;-91
2023/06/25 09:00:47;;;;;;;8.75;4.47;;;;;;;27.44;51.07;99178.00;4964225;28;20065;-90
2023/06/25 09:03:13;;;;;;;7.13;3.47;;;;;;;27.35;50.16;99176.38;4965072;28;20234;-90
2023/06/25 09:05:38;;;;;;;10.80;4.25;;;;;;;27.37;50.15;99165.72;4978973;28;20046;-90
2023/06/25 09:08:04;;;;;;;6.65;3.42;;;;;;;27.41;50.20;99169.31;4965593;28;20018;-88
2023/06/25 09:10:32;;;;;;;7.57;3.45;;;;;;;27.54;49.93;99167.00;4966574;28;20049;-91
2023/06/25 09:13:00;;;;;;;8.70;4.10;;;;;;;27.58;50.60;99167.81;4980979;28;20222;-91
2023/06/25 09:15:25;;;;;;;7.47;3.67;;;;;;;27.50;50.48;99173.69;4962444;28;20018;-90
2023/06/25 09:17:57;;;;;;;6.57;3.72;;;;;;;27.70;49.23;99157.56;4962144;28;20027;-90
2023/06/25 09:20:23;;;;;;;7.85;3.25;;;;;;;27.68;48.39;99148.88;4961687;28;20031;-90
2023/06/25 09:22:57;;;;;;;7.82;3.50;;;;;;;27.78;47.71;99161.94;4962087;28;20065;-91
2023/06/25 09:25:31;;;;;;;6.30;3.25;;;;;;;27.78;48.39;99157.19;4981152;28;20031;-91
2023/06/25 09:28:00;;;;;;;7.68;3.67;;;;;;;27.75;48.71;99148.91;4980093;28;20027;-91
2023/06/25 09:30:25;;;;;;;8.77;3.60;;;;;;;27.81;49.21;99141.81;4948884;28;20041;-91
2023/06/25 09:32:54;;;;;;;9.35;3.47;;;;;;;27.90;48.90;99136.72;4963739;28;20030;-91
2023/06/25 09:35:25;;;;;;;6.82;3.60;;;;;;;27.90;48.53;99130.41;4963838;28;20113;-90
2023/06/25 09:37:51;;;;;;;6.50;3.63;;;;;;;27.97;48.84;99138.69;4980872;28;20066;-91
2023/06/25 09:40:16;;;;;;;5.88;3.17;;;;;;;28.11;48.13;99127.66;4962842;28;20438;-92
2023/06/25 09:42:43;;;;;;;6.95;3.25;;;;;;;28.20;48.14;99138.34;4967128;28;20037;-91
2023/06/25 09:45:10;;;;;;;10.60;4.10;;;;;;;28.29;49.05;99138.00;4969702;28;20026;-91
2023/06/25 09:47:36;;;;;;;11.95;4.15;;;;;;;28.34;47.35;99135.59;4951160;28;20150;-91
2023/06/25 09:50:03;;;;;;;7.28;3.05;;;;;;;28.47;46.92;99133.22;4966363;28;20060;-91
2023/06/25 09:52:28;;;;;;;6.40;3.28;;;;;;;28.35;45.76;99133.66;4966829;28;20034;-91
2023/06/25 09:54:54;;;;;;;11.18;3.30;;;;;;;28.52;47.46;99123.78;4962689;28;20030;-88
2023/06/25 09:57:19;;;;;;;4.88;3.13;;;;;;;28.49;47.77;99121.75;4979195;28;20457;-90
2023/06/25 09:59:48;;;;;;;6.00;3.42;;;;;;;28.74;46.83;99128.13;4981382;28;20038;-89
2023/06/25 10:02:14;;;;;;;5.18;3.05;;;;;;;28.58;46.45;99124.97;4965810;28;20101;-90
2023/06/25 10:04:39;;;;;;;8.25;2.95;;;;;;;28.52;46.39;99126.56;4997956;28;20049;-90
2023/06/25 10:07:05;;;;;;;6.18;3.50;;;;;;;28.39;45.36;99124.16;4986857;28;20029;-90
2023/06/25 10:09:30;;;;;;;5.43;2.80;;;;;;;28.33;46.19;99111.88;4973185;28;20033;-90
2023/06/25 10:11:56;;;;;;;6.13;2.90;;;;;;;28.39;46.57;99102.00;4966347;28;20030;-90
2023/06/25 10:14:22;;;;;;;5.32;2.90;;;;;;;28.50;46.72;99115.88;4967484;28;20026;-90
2023/06/25 10:16:55;;;;;;;11.05;3.15;;;;;;;28.56;47.34;99113.50;4949537;28;20040;-90
2023/06/25 10:19:22;;;;;;;6.97;2.95;;;;;;;28.57;46.05;99117.84;4949539;28;20028;-90
2023/06/25 10:22:03;;;;;;;9.10;3.00;;;;;;;28.67;45.77;99113.47;4949660;28;20022;-91
2023/06/25 10:24:41;;;;;;;;;;;;;;;28.58;46.07;99116.66;4967306;28;20042;-90
2023/06/25 10:27:18;;;;;;;4.72;2.83;;;;;;;28.46;46.10;99103.19;4981220;28;19945;-90
2023/06/25 10:29:43;;;;;;;9.07;2.83;;;;;;;28.71;44.65;99089.34;4950988;28;20034;-91
2023/06/25 10:32:11;;;;;;;7.22;3.17;;;;;;;28.73;44.94;99090.50;4949670;28;20515;-92
2023/06/25 10:34:37;;;;;;;8.07;3.45;;;;;;;28.81;45.51;99094.84;4969266;28;20499;-92
2023/06/25 10:37:05;;;;;;;8.00;3.30;;;;;;;28.60;46.22;99079.06;4969266;28;20037;-90
2023/06/25 10:39:40;;;;;;;8.38;2.78;;;;;;;28.86;44.96;99090.88;5001535;28;20029;-91
2023/06/25 10:42:07;;;;;;;7.65;2.80;;;;;;;28.79;44.58;99088.13;4984980;28;20464;-90
2023/06/25 10:44:33;;;;;;;7.78;3.30;;;;;;;28.63;45.61;99080.22;4985422;28;20021;-91
2023/06/25 10:47:07;;;;;;;5.78;3.30;;;;;;;28.69;46.08;99072.31;4969307;28;20041;-91
2023/06/25 10:49:32;;;;;;;7.57;3.13;;;;;;;28.73;46.54;99070.34;4975605;28;20136;-93
2023/06/25 10:51:59;;;;;;;10.50;2.97;;;;;;;28.74;45.94;99066.34;4984632;28;20061;-91
2023/06/25 10:54:24;;;;;;;5.63;3.10;;;;;;;28.72;44.78;99061.22;4977566;28;20092;-91
2023/06/25 10:57:08;;;;;;;5.15;2.85;;;;;;;28.75;44.18;99060.41;4984808;28;20503;-92
2023/06/25 10:59:33;;;;;;;5.97;3.17;;;;;;;28.69;43.98;99050.94;4983923;28;20030;-91
2023/06/25 11:02:20;;;;;;;6.85;3.05;;;;;;;28.86;44.25;99051.28;4967849;28;20125;-91
2023/06/25 11:04:53;;;;;;;7.80;3.70;;;;;;;28.88;45.61;99051.69;4945508;28;20051;-90
2023/06/25 11:07:22;;;;;;;6.18;3.08;;;;;;;29.07;45.21;99047.66;4945477;28;20042;-91
2023/06/25 11:09:52;;;;;;;5.43;2.92;;;;;;;29.13;44.66;99046.88;4947051;28;20105;-91
2023/06/25 11:12:17;;;;;;;5.63;3.10;;;;;;;29.38;43.97;99038.44;4946144;28;20042;-91
2023/06/25 11:14:44;;;;;;;5.70;2.85;;;;;;;29.47;43.08;99034.44;4945511;28;20050;-90
2023/06/25 11:17:16;;;;;;;5.35;2.88;;;;;;;29.51;43.12;99036.00;4946422;28;20030;-91
2023/06/25 11:19:41;;;;;;;4.30;2.75;;;;;;;29.59;43.45;99037.56;4961481;28;20144;-90
2023/06/25 11:22:07;;;;;;;5.55;2.83;;;;;;;29.56;42.51;99035.56;4961457;28;20026;-90
2023/06/25 11:24:36;;;;;;;7.25;3.03;;;;;;;29.49;42.26;99029.28;4945595;28;20105;-90
2023/06/25 11:27:01;;;;;;;6.20;3.20;;;;;;;29.55;42.09;99024.88;4961418;28;20034;-90